createdAt,value
2019-02-22T00:02:53.115Z,5.13
2019-02-22T00:07:01.354Z,5.27
2019-02-22T00:11:09.611Z,5.15
2019-02-22T00:15:17.295Z,5.04
2019-02-22T00:19:25.410Z,5.12
2019-02-22T00:23:33.032Z,5.08
2019-02-22T00:27:40.619Z,4.94
2019-02-22T00:31:48.837Z,4.74
2019-02-22T00:35:56.538Z,4.46
2019-02-22T00:40:04.459Z,4.53
2019-02-22T00:44:12.564Z,4.39
2019-02-22T00:48:20.386Z,4.40
2019-02-22T00:52:30.549Z,4.49
2019-02-22T00:56:38.856Z,4.31
2019-02-22T01:00:46.382Z,4.47
2019-02-22T01:04:54.089Z,4.56
2019-02-22T01:09:02.487Z,4.42
2019-02-22T01:13:11.647Z,4.53
2019-02-22T01:17:19.863Z,4.63
2019-02-22T01:21:27.987Z,4.84
2019-02-22T01:25:35.685Z,4.92
2019-02-22T01:29:43.805Z,4.88
2019-02-22T01:33:54.104Z,4.94
2019-02-22T01:38:02.410Z,4.82
2019-02-22T01:42:10.806Z,4.60
2019-02-22T01:46:18.549Z,4.61
2019-02-22T01:50:26.348Z,4.63
2019-02-22T01:54:34.248Z,4.59
2019-02-22T01:58:48.745Z,4.69
2019-02-22T02:02:52.120Z,4.52
2019-02-22T02:07:00.959Z,4.45
2019-02-22T02:11:08.959Z,4.54
2019-02-22T02:15:18.010Z,4.38
2019-02-22T02:19:26.339Z,4.27
2019-02-22T02:23:34.054Z,4.25
2019-02-22T02:27:42.191Z,4.29
2019-02-22T02:31:50.275Z,3.98
2019-02-22T02:35:57.984Z,3.87
2019-02-22T02:40:06.812Z,3.81
2019-02-22T02:44:14.733Z,3.68
2019-02-22T02:48:22.565Z,3.67
2019-02-22T02:52:31.155Z,3.78
2019-02-22T02:56:38.887Z,3.75
2019-02-22T03:00:46.598Z,3.77
2019-02-22T03:04:54.709Z,3.78
2019-02-22T03:09:02.875Z,3.82
2019-02-22T03:13:12.629Z,3.81
2019-02-22T03:17:20.879Z,3.91
2019-02-22T03:21:28.718Z,3.87
2019-02-22T03:25:37.012Z,3.81
2019-02-22T03:29:45.238Z,3.75
2019-02-22T03:33:53.477Z,3.80
2019-02-22T03:38:01.787Z,3.79
2019-02-22T03:42:10.017Z,3.72
2019-02-22T03:46:17.778Z,3.81
2019-02-22T03:50:26.026Z,3.73
2019-02-22T03:54:34.048Z,3.64
2019-02-22T03:58:42.320Z,3.38
2019-02-22T04:02:50.552Z,3.47
2019-02-22T04:06:58.758Z,3.33
2019-02-22T04:11:06.750Z,3.41
2019-02-22T04:15:15.159Z,3.34
2019-02-22T04:19:22.857Z,3.53
2019-02-22T04:23:30.879Z,3.59
2019-02-22T04:27:38.773Z,3.41
2019-02-22T04:31:46.796Z,3.49
2019-02-22T04:35:54.614Z,3.65
2019-02-22T04:40:02.490Z,3.71
2019-02-22T04:44:10.674Z,3.70
2019-02-22T04:48:18.551Z,3.74
2019-02-22T04:52:26.561Z,3.63
2019-02-22T04:56:34.687Z,3.63
2019-02-22T05:00:42.499Z,3.61
2019-02-22T05:04:50.072Z,3.73
2019-02-22T05:08:58.219Z,3.70
2019-02-22T05:13:05.930Z,3.72
2019-02-22T05:17:13.771Z,3.77
2019-02-22T05:21:21.850Z,3.82
2019-02-22T05:25:29.679Z,3.85
2019-02-22T05:29:37.461Z,3.88
2019-02-22T05:33:45.417Z,3.97
2019-02-22T05:37:53.407Z,4.09
2019-02-22T05:42:01.619Z,4.20
2019-02-22T05:46:10.020Z,4.42
2019-02-22T05:50:18.150Z,4.70
2019-02-22T05:54:26.430Z,4.88
2019-02-22T05:58:34.692Z,5.12
2019-02-22T06:02:42.419Z,5.33
2019-02-22T06:06:50.401Z,5.35
2019-02-22T06:10:58.377Z,5.52
2019-02-22T06:15:06.234Z,5.67
2019-02-22T06:19:15.270Z,5.79
2019-02-22T06:23:23.159Z,5.87
2019-02-22T06:27:30.929Z,5.99
2019-02-22T06:31:39.134Z,6.10
2019-02-22T06:35:47.047Z,6.26
2019-02-22T06:39:55.282Z,8.02
2019-02-22T06:44:03.381Z,6.95
2019-02-22T06:48:11.066Z,7.65
2019-02-22T06:52:19.441Z,7.42
2019-02-22T06:56:27.926Z,7.26
2019-02-22T07:00:35.684Z,7.32
2019-02-22T07:04:43.497Z,7.77
2019-02-22T07:08:51.638Z,8.14
2019-02-22T07:13:03.348Z,8.43
2019-02-22T07:17:11.292Z,8.40
2019-02-22T07:21:21.303Z,8.72
2019-02-22T07:25:30.102Z,8.86
2019-02-22T07:29:38.392Z,9.11
2019-02-22T07:33:46.434Z,9.12
2019-02-22T07:37:54.230Z,9.40
2019-02-22T07:42:02.873Z,9.78
2019-02-22T07:46:10.609Z,9.73
2019-02-22T07:50:18.783Z,9.93
2019-02-22T07:54:26.990Z,10.00
2019-02-22T07:58:34.764Z,10.38
2019-02-22T08:02:42.920Z,10.48
2019-02-22T08:06:51.577Z,10.82
2019-02-22T08:10:59.175Z,10.64
2019-02-22T08:15:07.815Z,11.13
2019-02-22T08:19:15.612Z,11.60
2019-02-22T08:23:23.313Z,11.73
2019-02-22T08:27:31.217Z,11.75
2019-02-22T08:31:39.143Z,11.82
2019-02-22T08:35:47.251Z,11.87
2019-02-22T08:39:58.678Z,11.50
2019-02-22T08:44:04.805Z,11.92
2019-02-22T08:48:12.850Z,11.75
2019-02-22T08:52:21.272Z,11.62
2019-02-22T08:56:29.459Z,11.05
2019-02-22T09:00:37.644Z,11.16
2019-02-22T09:04:45.776Z,11.38
2019-02-22T09:08:53.532Z,11.15
2019-02-22T09:13:01.968Z,11.64
2019-02-22T09:17:10.014Z,11.51
2019-02-22T09:21:18.919Z,11.47
2019-02-22T09:25:27.257Z,11.37
2019-02-22T09:29:35.164Z,10.96
2019-02-22T09:33:42.968Z,10.95
2019-02-22T09:37:51.025Z,11.17
2019-02-22T09:41:58.775Z,11.28
2019-02-22T09:46:06.604Z,11.54
2019-02-22T09:50:14.534Z,11.43
2019-02-22T09:54:22.319Z,11.15
2019-02-22T09:58:30.254Z,11.02
2019-02-22T10:02:38.663Z,11.53
2019-02-22T10:06:46.514Z,11.92
2019-02-22T10:10:54.376Z,12.14
2019-02-22T10:15:02.616Z,12.22
2019-02-22T10:19:10.512Z,12.18
2019-02-22T10:23:18.745Z,12.13
2019-02-22T10:27:27.057Z,12.38
2019-02-22T10:31:34.676Z,12.52
2019-02-22T10:35:42.724Z,12.74
2019-02-22T10:39:50.697Z,12.82
2019-02-22T10:43:58.910Z,13.40
2019-02-22T10:48:07.139Z,13.30
2019-02-22T10:52:15.341Z,13.47
2019-02-22T10:56:23.076Z,13.17
2019-02-22T11:00:31.366Z,12.78
2019-02-22T11:04:39.090Z,12.82
2019-02-22T11:08:47.023Z,12.76
2019-02-22T11:12:54.915Z,12.83
2019-02-22T11:17:02.635Z,12.97
2019-02-22T11:21:10.744Z,13.24
2019-02-22T11:25:19.520Z,13.59
2019-02-22T11:29:27.295Z,13.75
2019-02-22T11:33:35.186Z,14.31
2019-02-22T11:37:43.501Z,14.40
2019-02-22T11:41:52.136Z,13.94
2019-02-22T11:45:59.944Z,13.65
2019-02-22T11:50:08.041Z,13.52
2019-02-22T11:54:16.112Z,13.39
2019-02-22T11:58:23.903Z,13.37
2019-02-22T12:02:32.351Z,13.73
2019-02-22T12:06:39.966Z,13.68
2019-02-22T12:10:48.166Z,13.86
2019-02-22T12:14:55.865Z,14.08
2019-02-22T12:19:03.915Z,13.82
2019-02-22T12:23:11.635Z,13.81
2019-02-22T12:27:19.382Z,13.95
2019-02-22T12:31:27.803Z,13.61
2019-02-22T12:35:35.653Z,13.11
2019-02-22T12:39:43.440Z,12.81
2019-02-22T12:43:51.499Z,12.63
2019-02-22T12:47:59.557Z,12.46
2019-02-22T12:52:07.563Z,12.30
2019-02-22T12:56:15.402Z,12.15
2019-02-22T13:00:23.633Z,12.05
2019-02-22T13:04:31.328Z,11.96
2019-02-22T13:08:39.335Z,11.86
2019-02-22T13:12:47.557Z,11.82
2019-02-22T13:16:55.767Z,11.69
2019-02-22T13:21:03.481Z,11.61
2019-02-22T13:25:11.822Z,11.56
2019-02-22T13:29:19.526Z,11.52
2019-02-22T13:33:27.333Z,11.49
2019-02-22T13:37:35.120Z,11.27
2019-02-22T13:41:43.041Z,10.77
2019-02-22T13:45:51.064Z,10.45
2019-02-22T13:49:58.859Z,10.38
2019-02-22T13:54:06.667Z,10.28
2019-02-22T13:58:14.723Z,10.18
2019-02-22T14:02:22.595Z,9.76
2019-02-22T14:06:30.218Z,9.64
2019-02-22T14:10:38.120Z,9.67
2019-02-22T14:14:46.253Z,9.35
2019-02-22T14:18:54.044Z,9.30
2019-02-22T14:23:03.592Z,8.73
2019-02-22T14:27:11.362Z,8.25
2019-02-22T14:31:19.728Z,7.93
2019-02-22T14:35:27.856Z,7.64
2019-02-22T14:39:35.444Z,7.56
2019-02-22T14:43:43.758Z,7.86
2019-02-22T14:47:51.830Z,7.76
2019-02-22T14:51:59.593Z,7.66
2019-02-22T14:56:07.623Z,7.36
2019-02-22T15:00:17.083Z,6.99
2019-02-22T15:04:24.874Z,7.23
2019-02-22T15:08:32.629Z,6.93
2019-02-22T15:12:40.887Z,6.88
2019-02-22T15:16:57.189Z,6.74
2019-02-22T15:21:05.426Z,6.69
2019-02-22T15:25:13.239Z,6.78
2019-02-22T15:29:21.044Z,6.58
2019-02-22T15:33:29.273Z,6.50
2019-02-22T15:37:37.119Z,6.52
2019-02-22T15:41:45.193Z,6.32
2019-02-22T15:45:53.097Z,5.95
2019-02-22T15:50:00.823Z,6.03
2019-02-22T15:54:09.138Z,5.76
2019-02-22T15:58:16.936Z,5.91
2019-02-22T16:02:24.656Z,5.71
2019-02-22T16:06:32.530Z,5.83
2019-02-22T16:10:40.690Z,5.50
2019-02-22T16:14:50.046Z,5.24
2019-02-22T16:18:57.937Z,5.00
2019-02-22T16:23:05.666Z,4.89
2019-02-22T16:27:13.587Z,5.26
2019-02-22T16:31:21.776Z,5.02
2019-02-22T16:35:29.828Z,5.04
2019-02-22T16:39:37.837Z,5.03
2019-02-22T16:43:45.794Z,5.21
2019-02-22T16:47:53.612Z,5.06
2019-02-22T16:52:01.811Z,5.11
2019-02-22T16:56:09.691Z,4.71
2019-02-22T17:00:18.174Z,4.52
2019-02-22T17:04:26.373Z,3.98
2019-02-22T17:08:34.218Z,3.68
2019-02-22T17:12:42.578Z,3.40
2019-02-22T17:16:50.690Z,3.29
2019-02-22T17:20:58.530Z,2.93
2019-02-22T17:25:08.282Z,2.75
2019-02-22T17:29:16.054Z,2.63
2019-02-22T17:33:23.962Z,2.48
2019-02-22T17:37:32.297Z,2.04
2019-02-22T17:41:42.681Z,1.94
2019-02-22T17:45:49.573Z,1.69
2019-02-22T17:50:00.341Z,1.50
2019-02-22T17:54:07.977Z,1.43
2019-02-22T17:58:24.331Z,1.29
2019-02-22T18:02:27.848Z,1.23
2019-02-22T18:06:35.597Z,1.06
2019-02-22T18:10:44.497Z,1.10
2019-02-22T18:14:52.620Z,0.85
2019-02-22T18:19:00.314Z,0.80
2019-02-22T18:23:08.462Z,0.83
2019-02-22T18:27:16.036Z,0.63
2019-02-22T18:31:23.946Z,0.56
2019-02-22T18:35:32.682Z,0.54
2019-02-22T18:39:40.388Z,0.46
2019-02-22T18:43:48.727Z,0.48
2019-02-22T18:47:57.026Z,0.34
2019-02-22T18:52:04.825Z,0.27
2019-02-22T18:56:12.669Z,0.22
2019-02-22T19:00:21.030Z,0.16
2019-02-22T19:04:28.684Z,0.09
2019-02-22T19:08:36.507Z,-0.12
2019-02-22T19:12:44.269Z,-0.12
2019-02-22T19:16:52.134Z,-0.35
2019-02-22T19:21:00.518Z,-0.46
2019-02-22T19:25:08.340Z,-0.56
2019-02-22T19:29:16.320Z,-0.66
2019-02-22T19:33:24.509Z,-0.69
2019-02-22T19:37:32.492Z,-0.72
2019-02-22T19:41:40.617Z,-0.75
2019-02-22T19:45:48.323Z,-0.80
2019-02-22T19:49:56.756Z,-0.83
2019-02-22T19:54:05.162Z,-0.92
2019-02-22T19:58:12.987Z,-1.00
2019-02-22T20:02:21.165Z,-0.97
2019-02-22T20:06:29.126Z,-1.12
2019-02-22T20:10:36.618Z,-1.30
2019-02-22T20:14:44.317Z,-1.32
2019-02-22T20:18:52.404Z,-1.62
2019-02-22T20:23:00.114Z,-1.63
2019-02-22T20:27:08.183Z,-1.66
2019-02-22T20:31:20.414Z,-1.65
2019-02-22T20:35:25.958Z,-1.82
2019-02-22T20:39:33.714Z,-1.79
2019-02-22T20:43:41.482Z,-1.82
2019-02-22T20:47:49.569Z,-1.94
2019-02-22T20:51:57.995Z,-1.96
2019-02-22T20:56:05.817Z,-1.97
2019-02-22T21:00:16.526Z,-1.92
2019-02-22T21:04:24.279Z,-2.07
2019-02-22T21:08:32.057Z,-2.16
2019-02-22T21:12:40.115Z,-2.32
2019-02-22T21:16:48.079Z,-2.27
2019-02-22T21:20:55.704Z,-2.42
2019-02-22T21:25:03.680Z,-2.42
2019-02-22T21:29:11.956Z,-2.48
2019-02-22T21:33:20.400Z,-2.57
2019-02-22T21:37:28.664Z,-2.60
2019-02-22T21:41:36.313Z,-2.70
2019-02-22T21:45:48.750Z,-2.73
2019-02-22T21:49:56.617Z,-2.88
2019-02-22T21:54:04.563Z,-3.04
2019-02-22T21:58:12.579Z,-3.06
2019-02-22T22:02:21.298Z,-3.10
2019-02-22T22:06:28.867Z,-3.18
2019-02-22T22:10:36.961Z,-3.26
2019-02-22T22:14:45.208Z,-3.19
2019-02-22T22:18:52.687Z,-3.28
2019-02-22T22:23:00.905Z,-3.26
2019-02-22T22:27:09.600Z,-3.48
2019-02-22T22:31:17.468Z,-3.62
2019-02-22T22:35:25.723Z,-3.73
2019-02-22T22:39:33.547Z,-3.89
2019-02-22T22:43:41.379Z,-3.89
2019-02-22T22:47:49.470Z,-3.91
2019-02-22T22:51:58.350Z,-3.95
2019-02-22T22:56:06.507Z,-3.92
2019-02-22T23:00:56.172Z,-4.07
2019-02-22T23:05:04.621Z,-4.18
2019-02-22T23:09:19.237Z,-4.20
2019-02-22T23:13:27.332Z,-4.23
2019-02-22T23:17:35.081Z,-4.24
2019-02-22T23:21:44.258Z,-4.27
2019-02-22T23:25:52.025Z,-4.19
2019-02-22T23:29:59.902Z,-4.37
2019-02-22T23:34:07.751Z,-4.39
2019-02-22T23:38:15.407Z,-4.29
2019-02-22T23:42:23.677Z,-4.32
2019-02-22T23:46:31.945Z,-4.33
2019-02-22T23:50:41.004Z,-4.38
2019-02-22T23:54:48.891Z,-4.41
2019-02-22T23:58:56.867Z,-4.44
